Aérodrome :
LOGIN :

S'inscrire | Disclaimer

   EN    FR    IT 

 










Légende :    VFR   VFR Marginal   IFR   IFR Intensif   IFR Très Intensif
Visi : 
Plafond : 
>= 8 km
>= 3000ft
5 à 8 km
1000 à 3000 ft
1500m à 5 km
500 à 1000 ft
800 à 1500m
200 à 500 ft
< 800m
< 200 ft
Symboles :   Orages  Brouillard  Fortes neiges  Fortes précipitations  Vent > 20 kt
SIGMETs :   Divers  Orages  Givrage  Turbulence  Onde Orograph.  Cendres Volcan.







- Altitude de l'aérodrome : 276 ft


LYVR - Vršac International

DERNIER METAR :
  • 190300Z 06001KT 3000 -SN BR BKN003 00/M00 Q1014 R01/////// NOSIG

METARs EXPIRÉS :
  • 190230Z 00000KT 4000 -SN BR BKN003 00/M00 Q1015 R01/////// NOSIG
  • 190200Z 00000KT 3000 -SN BR BKN003 00/M00 Q1015 R01/////// NOSIG
  • 190130Z VRB01KT 3000 -SN BR BKN003 00/M00 Q1015 R01/////// NOSIG
  • 190100Z VRB01KT 3000 -SN BR BKN003 00/M00 Q1015 R01/////// NOSIG
  • 190030Z VRB02KT 3000 -SN BR FEW006 BKN013 00/M00 Q1015 R01/////// NOSIG

TAF TAF LYVR
Valide du 19 à 00h jusqu'au 20 à 00h UTC


182300Z 1900/1924 10004KT 2000 -SN BR BKN003 TX03/1912Z TNM00/1905Z
BECMG 1907/1909 6000 NSW BKN006
BECMG 1912/1914 SCT010 BKN023
Pas de NOTAMs connus pour ce terrain.



MET'MAP, la Météo Aéronautique d'un coup d'oeil ! - Copyright ORBIFLY Décembre 2007 - Disclaimer

ORBIFLY MET'MAP TEAM :

Programmation & Développement : Alexandra Zaïnal
Conception & Développement : Baudouin d'Aumeries
Co-Programmation & Développement : Marc-Olivier Méhu
Soutien technique & logistique : Manuel Goepfert

Contact : metmap@orbifly.com




SOURCES & CREDITS :

   NOAA